Time;durP1;ratioP1;P1;durP2;ratioP2;P2;SDS_P1;SDS_P2;PMS_P1;PMS_P2;Temp;Humidity;BMP_temperature;BMP_pressure;BME280_temperature;BME280_humidity;BME280_pressure;Samples;Min_cycle;Max_cycle;Signal;HPM_P1;HPM_P2
2022/12/03 00:01:45;;;;;;;99.22;48.53;;;5.80;99.90;;;;;;5077206;28;20024;-63
2022/12/03 00:04:11;;;;;;;94.90;47.20;;;5.70;99.90;;;;;;5095261;28;20046;-63
2022/12/03 00:06:37;;;;;;;101.57;48.00;;;5.70;99.90;;;;;;5095143;28;20028;-64
2022/12/03 00:09:04;;;;;;;95.22;46.17;;;5.70;99.90;;;;;;5095084;28;20017;-63
2022/12/03 00:11:29;;;;;;;99.05;46.00;;;5.70;99.90;;;;;;5095171;28;20024;-63
2022/12/03 00:13:56;;;;;;;92.45;44.97;;;5.90;99.90;;;;;;5094814;28;20035;-63
2022/12/03 00:16:22;;;;;;;95.53;46.60;;;5.90;99.90;;;;;;5108428;28;20397;-63
2022/12/03 00:18:48;;;;;;;104.45;48.80;;;5.90;99.90;;;;;;5115435;28;20388;-64
2022/12/03 00:21:13;;;;;;;98.65;47.42;;;5.70;99.90;;;;;;5115273;28;20031;-63
2022/12/03 00:23:39;;;;;;;102.32;47.42;;;5.50;99.90;;;;;;5115263;28;20031;-63
2022/12/03 00:26:05;;;;;;;98.43;48.90;;;5.60;99.90;;;;;;5115302;28;20159;-63
2022/12/03 00:28:31;;;;;;;94.25;46.92;;;5.60;99.90;;;;;;5115212;28;20473;-64
2022/12/03 00:30:57;;;;;;;93.07;46.85;;;5.50;99.90;;;;;;5097075;28;20031;-63
2022/12/03 00:33:23;;;;;;;102.05;48.33;;;5.60;99.90;;;;;;5115100;28;20492;-63
2022/12/03 00:35:49;;;;;;;95.60;47.38;;;5.50;99.90;;;;;;5115328;28;20038;-63
2022/12/03 00:38:14;;;;;;;99.20;48.55;;;5.60;99.90;;;;;;5115055;28;20495;-64
2022/12/03 00:40:41;;;;;;;94.60;48.42;;;5.60;99.90;;;;;;5115250;28;20020;-63
2022/12/03 00:43:06;;;;;;;101.50;48.13;;;5.60;99.90;;;;;;5114920;28;20389;-63
2022/12/03 00:45:32;;;;;;;115.15;50.80;;;5.60;99.90;;;;;;5115110;28;20023;-63
2022/12/03 00:47:58;;;;;;;101.05;49.30;;;5.60;99.90;;;;;;5115067;28;20063;-63
2022/12/03 00:50:24;;;;;;;107.15;48.88;;;5.60;99.90;;;;;;5116613;28;20027;-63
2022/12/03 00:52:50;;;;;;;100.63;48.00;;;5.60;99.90;;;;;;5119264;28;20027;-63
2022/12/03 00:55:16;;;;;;;100.70;47.60;;;5.60;99.90;;;;;;5119109;28;20030;-63
2022/12/03 00:57:42;;;;;;;104.18;47.65;;;5.60;99.90;;;;;;5118956;28;20477;-63
2022/12/03 01:00:09;;;;;;;109.07;50.20;;;5.50;99.90;;;;;;5118965;28;20046;-63
2022/12/03 01:02:35;;;;;;;104.75;49.40;;;5.60;99.90;;;;;;5118690;28;20110;-63
2022/12/03 01:05:02;;;;;;;106.95;50.97;;;5.50;99.90;;;;;;5118999;28;20019;-63
2022/12/03 01:07:28;;;;;;;112.82;50.42;;;5.50;99.90;;;;;;5118903;28;20034;-64
2022/12/03 01:09:54;;;;;;;108.35;50.72;;;5.60;99.90;;;;;;5107827;28;20032;-63
2022/12/03 01:12:19;;;;;;;100.80;46.22;;;5.60;99.90;;;;;;5080148;28;20498;-64
2022/12/03 01:14:46;;;;;;;103.50;48.53;;;5.60;99.90;;;;;;5098574;28;20539;-63
2022/12/03 01:17:12;;;;;;;105.30;48.85;;;5.60;99.90;;;;;;5118890;28;20047;-63
2022/12/03 01:19:39;;;;;;;103.43;46.92;;;5.60;99.90;;;;;;5100561;28;20028;-63
2022/12/03 01:22:05;;;;;;;96.78;47.00;;;5.70;99.90;;;;;;5100212;28;20023;-63
2022/12/03 01:24:33;;;;;;;96.88;46.28;;;5.80;99.90;;;;;;5118672;28;20500;-63
2022/12/03 01:26:59;;;;;;;101.22;48.05;;;5.80;99.90;;;;;;5118559;28;20385;-63
2022/12/03 01:29:25;;;;;;;104.30;47.97;;;5.80;99.90;;;;;;5118560;28;20044;-63
2022/12/03 01:34:36;;;;;;;101.50;46.88;;;5.80;99.90;;;;;;5118569;28;20043;-63
2022/12/03 01:37:02;;;;;;;104.57;48.97;;;5.70;99.90;;;;;;5118632;28;20023;-63
2022/12/03 01:39:28;;;;;;;101.18;47.58;;;5.70;99.90;;;;;;5118194;28;20031;-63
2022/12/03 01:41:54;;;;;;;104.50;48.30;;;5.70;99.90;;;;;;5118384;28;20027;-63
2022/12/03 01:44:23;;;;;;;108.85;49.35;;;5.70;99.90;;;;;;5118300;28;20024;-63
2022/12/03 01:46:51;;;;;;;108.43;50.95;;;5.80;99.90;;;;;;5118118;28;20103;-63
2022/12/03 01:49:25;;;;;;;103.03;47.08;;;5.70;99.90;;;;;;5118323;28;20031;-63
2022/12/03 01:51:52;;;;;;;107.53;49.00;;;5.80;99.90;;;;;;5117981;28;20469;-63
2022/12/03 01:54:24;;;;;;;110.60;50.83;;;5.60;99.90;;;;;;5118032;28;20031;-64
2022/12/03 01:56:51;;;;;;;106.65;49.45;;;5.60;99.90;;;;;;5118025;28;20080;-63
2022/12/03 01:59:20;;;;;;;112.07;49.45;;;5.60;99.90;;;;;;5117829;28;20545;-63
2022/12/03 02:01:46;;;;;;;123.25;52.97;;;5.60;99.90;;;;;;5117889;28;20088;-63
2022/12/03 02:04:15;;;;;;;118.43;51.55;;;5.50;99.90;;;;;;5117890;28;20031;-64
2022/12/03 02:06:42;;;;;;;128.57;54.88;;;5.60;99.90;;;;;;5117651;28;20028;-63
2022/12/03 02:09:12;;;;;;;124.47;55.30;;;5.60;99.90;;;;;;5099342;28;20027;-63
2022/12/03 02:11:45;;;;;;;124.85;55.65;;;5.50;99.90;;;;;;5117725;28;20038;-63
2022/12/03 02:14:16;;;;;;;120.65;53.97;;;5.40;99.90;;;;;;5117760;28;20027;-63
2022/12/03 02:16:44;;;;;;;123.35;52.90;;;5.40;99.90;;;;;;5117529;28;20453;-63
2022/12/03 02:19:21;;;;;;;125.75;54.90;;;5.30;99.90;;;;;;5117534;28;20217;-63
2022/12/03 02:22:06;;;;;;;120.80;52.42;;;5.30;99.90;;;;;;5117381;28;20039;-63
2022/12/03 02:24:58;;;;;;;119.53;53.70;;;5.30;99.90;;;;;;5117572;28;20093;-63
2022/12/03 02:27:26;;;;;;;127.43;56.45;;;5.40;99.90;;;;;;5117548;28;20153;-63
2022/12/03 02:29:52;;;;;;;118.60;54.30;;;5.20;99.90;;;;;;5117353;28;20802;-64
2022/12/03 02:32:20;;;;;;;110.97;52.92;;;5.40;99.90;;;;;;5117368;28;20034;-63
2022/12/03 02:34:46;;;;;;;124.68;54.47;;;5.40;99.90;;;;;;5117450;28;20423;-63
2022/12/03 02:37:23;;;;;;;115.63;53.75;;;5.60;99.90;;;;;;5117232;28;20030;-63
2022/12/03 02:39:59;;;;;;;119.47;52.58;;;5.60;99.90;;;;;;5117118;28;20353;-63
2022/12/03 02:42:34;;;;;;;110.47;51.40;;;5.60;99.90;;;;;;5117201;28;20027;-63
2022/12/03 02:45:12;;;;;;;111.82;49.80;;;5.60;99.90;;;;;;5117206;28;20466;-63
2022/12/03 02:47:45;;;;;;;114.38;50.75;;;5.60;99.90;;;;;;5116966;28;20499;-63
2022/12/03 02:50:16;;;;;;;114.90;50.90;;;5.60;99.90;;;;;;5116954;28;20034;-64
2022/12/03 02:52:44;;;;;;;118.70;50.35;;;5.60;99.90;;;;;;5117008;28;20084;-63
2022/12/03 02:55:11;;;;;;;107.38;47.17;;;5.60;99.90;;;;;;5116759;28;20020;-63
2022/12/03 02:57:38;;;;;;;95.72;44.75;;;5.50;99.90;;;;;;5116557;28;20469;-63
2022/12/03 03:00:06;;;;;;;92.65;44.83;;;5.50;99.90;;;;;;5116823;28;20473;-64
2022/12/03 03:02:33;;;;;;;88.82;41.55;;;5.50;99.90;;;;;;5116808;28;20369;-63
2022/12/03 03:05:00;;;;;;;87.95;40.85;;;5.50;99.90;;;;;;5116539;28;20047;-63
2022/12/03 03:07:26;;;;;;;89.82;42.20;;;5.40;99.90;;;;;;5116591;28;20099;-63
2022/12/03 03:09:52;;;;;;;85.85;41.58;;;5.40;99.90;;;;;;5105855;28;20225;-64
2022/12/03 03:12:18;;;;;;;84.60;40.72;;;5.40;99.90;;;;;;5095781;28;20024;-63
2022/12/03 03:14:44;;;;;;;84.05;40.15;;;5.40;99.90;;;;;;5095902;28;20020;-63
2022/12/03 03:17:10;;;;;;;80.13;39.60;;;5.50;99.90;;;;;;5116041;28;20485;-63
2022/12/03 03:19:36;;;;;;;85.18;40.40;;;5.50;99.90;;;;;;5116418;28;20038;-63
2022/12/03 03:22:02;;;;;;;76.50;39.30;;;5.40;99.90;;;;;;5116451;28;20091;-63
2022/12/03 03:24:28;;;;;;;90.55;41.85;;;5.50;99.90;;;;;;5116169;28;20086;-63
2022/12/03 03:26:54;;;;;;;78.60;38.15;;;5.50;99.90;;;;;;5116147;28;20074;-63
2022/12/03 03:29:20;;;;;;;83.25;38.42;;;5.30;99.90;;;;;;5116128;28;20423;-64
2022/12/03 03:31:46;;;;;;;86.40;39.47;;;5.30;99.90;;;;;;5116095;28;20458;-63
2022/12/03 03:34:13;;;;;;;80.80;40.38;;;5.30;99.90;;;;;;5116135;28;20031;-63
2022/12/03 03:36:40;;;;;;;91.18;40.13;;;5.20;99.90;;;;;;5116083;28;20074;-63
2022/12/03 03:39:06;;;;;;;96.47;41.50;;;5.10;99.90;;;;;;5116137;28;20031;-63
2022/12/03 03:41:33;;;;;;;78.43;36.30;;;5.00;99.90;;;;;;5116003;28;20030;-63
2022/12/03 03:43:59;;;;;;;88.43;39.85;;;4.90;99.90;;;;;;5115977;28;20054;-63
2022/12/03 03:46:27;;;;;;;83.45;39.83;;;5.00;99.90;;;;;;5115592;28;20024;-63
2022/12/03 03:48:53;;;;;;;89.13;40.45;;;5.10;99.90;;;;;;5115965;28;20035;-63
2022/12/03 03:51:20;;;;;;;91.05;40.90;;;5.00;99.90;;;;;;5115787;28;20370;-63
2022/12/03 03:53:48;;;;;;;92.00;42.38;;;5.00;99.90;;;;;;5115651;28;20058;-63
2022/12/03 03:56:16;;;;;;;89.72;42.25;;;5.10;99.90;;;;;;5115662;28;20023;-63
2022/12/03 03:58:42;;;;;;;87.60;40.78;;;5.10;99.90;;;;;;5115897;28;20031;-63
2022/12/03 04:01:10;;;;;;;80.30;38.15;;;5.00;99.90;;;;;;5115678;28;20024;-63
2022/12/03 04:03:36;;;;;;;84.63;39.50;;;5.00;99.90;;;;;;5115712;28;20065;-63
2022/12/03 04:06:03;;;;;;;90.47;42.15;;;5.10;99.90;;;;;;5115483;28;20040;-63
2022/12/03 04:08:29;;;;;;;91.40;39.47;;;5.00;99.90;;;;;;5115429;28;20038;-63
2022/12/03 04:13:40;;;;;;;90.13;41.13;;;5.00;99.90;;;;;;5095162;28;20048;-63
2022/12/03 04:16:06;;;;;;;87.63;40.88;;;5.00;99.90;;;;;;5105696;28;20071;-64
2022/12/03 04:18:44;;;;;;;96.80;43.63;;;5.00;99.90;;;;;;5115207;28;20023;-63
2022/12/03 04:23:57;;;;;;;99.65;44.03;;;5.20;99.90;;;;;;5114764;28;20051;-63
2022/12/03 04:29:08;;;;;;;95.35;43.42;;;5.10;99.90;;;;;;5115089;28;20039;-63
2022/12/03 04:37:04;;;;;;;94.03;43.42;;;5.10;99.90;;;;;;5115098;28;20028;-63
2022/12/03 04:39:30;;;;;;;101.13;44.53;;;5.20;99.90;;;;;;5114880;28;20031;-63
2022/12/03 04:41:55;;;;;;;97.78;42.95;;;5.30;99.90;;;;;;5114982;28;20041;-63
2022/12/03 04:44:37;;;;;;;107.15;46.28;;;5.40;99.90;;;;;;5114987;28;20036;-63
2022/12/03 04:47:17;;;;;;;99.97;43.50;;;5.20;99.90;;;;;;5114976;28;20032;-63
2022/12/03 04:49:46;;;;;;;104.25;45.72;;;5.00;99.90;;;;;;5097101;28;20028;-64
2022/12/03 04:52:14;;;;;;;106.60;45.22;;;5.10;99.90;;;;;;5114795;28;20457;-64
2022/12/03 04:54:40;;;;;;;111.80;44.58;;;5.30;99.90;;;;;;5114927;28;20019;-64
2022/12/03 04:57:07;;;;;;;109.03;45.40;;;5.30;99.90;;;;;;5114932;28;20099;-63
2022/12/03 04:59:34;;;;;;;96.78;43.75;;;5.20;99.90;;;;;;5114728;28;20031;-63
2022/12/03 05:02:00;;;;;;;98.15;45.17;;;5.30;99.90;;;;;;5114921;28;20023;-63
2022/12/03 05:04:26;;;;;;;98.43;45.10;;;5.30;99.90;;;;;;5114799;28;20031;-63
2022/12/03 05:06:52;;;;;;;106.53;45.40;;;5.30;99.90;;;;;;5114388;28;20061;-63
2022/12/03 05:09:18;;;;;;;105.28;45.35;;;5.30;99.90;;;;;;5114617;28;20024;-63
2022/12/03 05:11:44;;;;;;;103.80;45.53;;;5.20;99.90;;;;;;5114611;28;20031;-63
2022/12/03 05:14:10;;;;;;;105.78;46.22;;;5.30;99.90;;;;;;5114720;28;20146;-64
2022/12/03 05:16:36;;;;;;;112.75;45.90;;;5.30;99.90;;;;;;5114547;28;20049;-63
2022/12/03 05:19:04;;;;;;;98.85;45.28;;;5.40;99.90;;;;;;5114693;28;20035;-63
2022/12/03 05:21:30;;;;;;;109.57;47.00;;;5.30;99.90;;;;;;5114543;28;20453;-64
2022/12/03 05:23:56;;;;;;;122.55;48.55;;;5.30;99.90;;;;;;5114649;28;20026;-63
2022/12/03 05:26:22;;;;;;;124.32;48.55;;;5.30;99.90;;;;;;5114469;28;20057;-63
2022/12/03 05:28:48;;;;;;;124.00;47.03;;;5.30;99.90;;;;;;5114669;28;20054;-64
2022/12/03 05:31:14;;;;;;;107.55;47.13;;;5.30;99.90;;;;;;5114603;28;20031;-63
2022/12/03 05:33:40;;;;;;;106.22;47.95;;;5.30;99.90;;;;;;5114413;28;20046;-63
2022/12/03 05:36:06;;;;;;;124.97;49.28;;;5.20;99.90;;;;;;5115499;28;20027;-63
2022/12/03 05:38:32;;;;;;;107.15;46.47;;;5.00;99.90;;;;;;5118329;28;20106;-63
2022/12/03 05:40:58;;;;;;;114.40;45.90;;;5.10;99.90;;;;;;5118182;28;20032;-63
2022/12/03 05:43:24;;;;;;;113.35;47.72;;;5.10;99.90;;;;;;5118270;28;20023;-63
2022/12/03 05:45:50;;;;;;;111.40;48.33;;;5.10;99.90;;;;;;5118232;28;20028;-63
2022/12/03 05:48:16;;;;;;;115.18;48.15;;;5.10;99.90;;;;;;5118347;28;20023;-63
2022/12/03 05:50:44;;;;;;;109.35;47.75;;;5.00;99.90;;;;;;5118037;28;20024;-63
2022/12/03 05:53:14;;;;;;;112.25;49.17;;;5.00;99.90;;;;;;5118155;28;20118;-63
2022/12/03 05:55:40;;;;;;;122.82;50.42;;;5.00;99.90;;;;;;5117897;28;20103;-63
2022/12/03 05:58:06;;;;;;;118.65;51.72;;;5.10;99.90;;;;;;5117870;28;20027;-63
2022/12/03 06:00:36;;;;;;;126.47;51.00;;;5.00;99.90;;;;;;5118074;28;20024;-63
2022/12/03 06:03:04;;;;;;;112.88;48.10;;;5.00;99.90;;;;;;5117783;28;20461;-63
2022/12/03 06:05:30;;;;;;;140.52;52.40;;;5.10;99.90;;;;;;5117863;28;20027;-63
2022/12/03 06:07:56;;;;;;;117.97;48.58;;;5.10;99.90;;;;;;5117880;28;20034;-63
2022/12/03 06:10:24;;;;;;;124.20;53.65;;;5.10;99.90;;;;;;5117440;28;20048;-63
2022/12/03 06:12:50;;;;;;;123.65;51.60;;;5.10;99.90;;;;;;5117733;28;20393;-63
2022/12/03 06:15:16;;;;;;;126.53;49.67;;;5.20;99.90;;;;;;5117485;28;20105;-63
2022/12/03 06:17:42;;;;;;;112.82;49.38;;;5.30;99.90;;;;;;5117333;28;20430;-63
2022/12/03 06:20:12;;;;;;;118.03;49.50;;;5.30;99.90;;;;;;5117520;28;20393;-63
2022/12/03 06:22:38;;;;;;;126.00;50.28;;;5.30;99.90;;;;;;5099074;28;20059;-63
2022/12/03 06:25:04;;;;;;;121.20;50.47;;;5.30;99.90;;;;;;5117548;28;20016;-63
2022/12/03 06:27:30;;;;;;;123.53;51.42;;;5.40;99.90;;;;;;5117481;28;20024;-63
2022/12/03 06:29:56;;;;;;;170.07;68.97;;;5.40;99.90;;;;;;5117339;28;20027;-63
2022/12/03 06:32:22;;;;;;;151.05;60.35;;;5.50;99.90;;;;;;5117236;28;20031;-63
2022/12/03 06:34:47;;;;;;;118.40;49.92;;;5.60;99.90;;;;;;5117313;28;20020;-63
2022/12/03 06:37:13;;;;;;;121.78;51.67;;;5.60;99.90;;;;;;5117168;28;20037;-63
2022/12/03 06:39:39;;;;;;;132.65;55.70;;;5.50;99.90;;;;;;5117107;28;20032;-63
2022/12/03 06:42:05;;;;;;;132.77;54.25;;;5.60;99.90;;;;;;5117193;28;20110;-63
2022/12/03 06:44:31;;;;;;;148.70;62.40;;;5.60;99.90;;;;;;5117119;28;20071;-63
2022/12/03 06:46:57;;;;;;;159.68;64.28;;;5.50;99.90;;;;;;5116672;28;20035;-63
2022/12/03 06:49:23;;;;;;;135.02;57.53;;;5.50;99.90;;;;;;5098175;28;20036;-63
2022/12/03 06:51:49;;;;;;;133.00;53.65;;;5.50;99.90;;;;;;5116808;28;20023;-63
2022/12/03 06:54:14;;;;;;;107.20;46.75;;;5.60;99.90;;;;;;5116989;28;20409;-64
2022/12/03 06:56:40;;;;;;;138.80;53.63;;;5.60;99.90;;;;;;5116906;28;20038;-63
2022/12/03 06:59:06;;;;;;;125.78;53.67;;;5.60;99.90;;;;;;5116976;28;20059;-63
2022/12/03 07:01:32;;;;;;;117.68;51.30;;;5.60;99.90;;;;;;5117059;28;20442;-63
2022/12/03 07:03:58;;;;;;;122.80;50.83;;;5.60;99.90;;;;;;5116763;28;20030;-63
2022/12/03 07:06:24;;;;;;;109.63;47.90;;;5.60;99.90;;;;;;5116363;28;20469;-64
2022/12/03 07:08:50;;;;;;;137.20;55.60;;;5.70;99.90;;;;;;5114666;28;20035;-63
2022/12/03 07:11:31;;;;;;;128.30;55.67;;;5.70;99.90;;;;;;5096298;28;20028;-63
2022/12/03 07:13:58;;;;;;;;;;;5.60;99.90;;;;;;5096486;28;20475;-63
2022/12/03 07:16:23;;;;;;;125.35;54.30;;;5.70;99.90;;;;;;5109531;28;19935;-63
2022/12/03 07:18:49;;;;;;;132.98;57.00;;;5.70;99.90;;;;;;5116239;28;20028;-63
2022/12/03 07:21:15;;;;;;;135.40;54.80;;;5.70;99.90;;;;;;5116359;28;20119;-63
2022/12/03 07:23:41;;;;;;;128.38;54.72;;;5.70;99.90;;;;;;5116281;28;20027;-63
2022/12/03 07:26:07;;;;;;;133.13;52.78;;;5.60;99.90;;;;;;5116319;28;20035;-63
2022/12/03 07:28:33;;;;;;;138.93;55.63;;;5.70;99.90;;;;;;5116091;28;20028;-63
2022/12/03 07:30:59;;;;;;;142.77;57.13;;;5.80;99.90;;;;;;5116144;28;20028;-62
2022/12/03 07:33:25;;;;;;;161.98;63.95;;;5.90;99.90;;;;;;5116020;28;20031;-62
2022/12/03 07:35:51;;;;;;;146.43;61.08;;;5.90;99.90;;;;;;5115782;28;20477;-63
2022/12/03 07:38:17;;;;;;;145.00;57.90;;;5.80;99.90;;;;;;5103114;28;20036;-63
2022/12/03 07:40:44;;;;;;;164.27;61.38;;;5.70;99.90;;;;;;5085814;28;20056;-62
2022/12/03 07:43:11;;;;;;;154.00;63.95;;;5.70;99.90;;;;;;5086034;28;20024;-62
2022/12/03 07:45:36;;;;;;;158.52;60.75;;;5.70;99.90;;;;;;5092911;28;20024;-63
2022/12/03 07:48:03;;;;;;;147.05;60.70;;;5.70;99.90;;;;;;5084864;28;20371;-62
2022/12/03 07:50:28;;;;;;;139.85;61.17;;;5.80;99.90;;;;;;5082110;28;20024;-62
2022/12/03 07:52:55;;;;;;;168.60;64.32;;;5.70;99.90;;;;;;5090292;28;20435;-63
2022/12/03 07:55:21;;;;;;;147.23;60.80;;;5.80;99.90;;;;;;5094307;28;20024;-63
2022/12/03 07:57:47;;;;;;;146.02;62.92;;;5.80;99.90;;;;;;5095147;28;20025;-63
2022/12/03 08:00:14;;;;;;;121.60;49.03;;;5.80;99.90;;;;;;5091175;28;20028;-63
2022/12/03 08:02:40;;;;;;;142.32;51.47;;;5.80;99.90;;;;;;5074407;28;20024;-63
2022/12/03 08:05:06;;;;;;;123.70;49.35;;;5.80;99.90;;;;;;5057511;28;20385;-63
2022/12/03 08:07:33;;;;;;;125.50;52.80;;;5.90;99.90;;;;;;5091274;28;20031;-63
2022/12/03 08:09:59;;;;;;;127.20;53.10;;;6.00;99.90;;;;;;5107330;28;20144;-63
2022/12/03 08:12:41;;;;;;;136.25;56.38;;;6.00;99.90;;;;;;5093872;28;20016;-63
2022/12/03 08:15:12;;;;;;;124.03;52.40;;;6.10;99.90;;;;;;5084218;28;21189;-63
2022/12/03 08:17:41;;;;;;;130.65;54.75;;;6.10;99.90;;;;;;5115857;28;20473;-62
2022/12/03 08:20:19;;;;;;;161.18;62.65;;;6.10;99.90;;;;;;5115611;28;20477;-62
2022/12/03 08:22:47;;;;;;;155.00;62.90;;;6.10;99.90;;;;;;5115188;28;20083;-63
2022/12/03 08:25:18;;;;;;;144.32;60.03;;;6.20;99.90;;;;;;5115239;28;20424;-63
2022/12/03 08:27:44;;;;;;;149.90;61.75;;;6.20;99.90;;;;;;5115089;28;20034;-63
2022/12/03 08:30:13;;;;;;;156.23;66.82;;;6.10;99.90;;;;;;5115184;28;20464;-63
2022/12/03 08:32:39;;;;;;;157.48;63.17;;;6.10;99.90;;;;;;5115123;28;20030;-63
2022/12/03 08:35:23;;;;;;;159.80;66.57;;;6.20;99.90;;;;;;5115315;28;20444;-63
2022/12/03 08:38:01;;;;;;;177.85;72.55;;;6.30;99.90;;;;;;5114935;28;20055;-63
2022/12/03 08:40:35;;;;;;;173.73;68.15;;;6.30;99.90;;;;;;5115171;28;20401;-63
2022/12/03 08:43:17;;;;;;;170.88;68.55;;;6.20;99.90;;;;;;5115042;28;20035;-62
2022/12/03 08:45:43;;;;;;;168.98;70.93;;;6.20;99.90;;;;;;5114939;28;20385;-62
2022/12/03 08:48:28;;;;;;;170.52;71.38;;;6.30;99.90;;;;;;5114912;28;20027;-63
2022/12/03 08:50:57;;;;;;;163.65;66.78;;;6.20;99.90;;;;;;5114934;28;20097;-63
2022/12/03 08:53:31;;;;;;;220.60;101.90;;;6.10;99.90;;;;;;5114774;28;20381;-63
2022/12/03 08:56:10;;;;;;;174.98;68.05;;;6.10;99.90;;;;;;5114827;28;20062;-63
2022/12/03 08:58:42;;;;;;;192.27;76.82;;;6.30;99.90;;;;;;5114889;28;20134;-63
2022/12/03 09:01:11;;;;;;;205.98;87.35;;;6.40;99.90;;;;;;5114740;28;20035;-63
2022/12/03 09:03:54;;;;;;;172.52;73.65;;;6.30;99.90;;;;;;5114823;28;20110;-63
2022/12/03 09:06:20;;;;;;;177.50;68.47;;;6.40;99.90;;;;;;5114659;28;20099;-63
2022/12/03 09:08:47;;;;;;;165.38;64.22;;;6.50;99.90;;;;;;5116138;28;20023;-63
2022/12/03 09:11:13;;;;;;;146.85;61.42;;;6.50;99.90;;;;;;5136731;27;20034;-64
2022/12/03 09:13:39;;;;;;;149.73;59.05;;;6.60;99.90;;;;;;5139208;27;20039;-63
2022/12/03 09:16:05;;;;;;;143.93;59.83;;;6.60;99.90;;;;;;5139182;27;20479;-63
2022/12/03 09:18:31;;;;;;;132.80;56.28;;;6.70;99.90;;;;;;5139206;27;20026;-63
2022/12/03 09:20:59;;;;;;;129.98;56.08;;;6.70;99.90;;;;;;5139245;27;20106;-63
2022/12/03 09:23:25;;;;;;;149.18;61.80;;;6.70;99.90;;;;;;5139183;27;20047;-63
2022/12/03 09:25:51;;;;;;;159.60;62.97;;;6.70;99.90;;;;;;5139245;27;20106;-63
2022/12/03 09:28:17;;;;;;;160.32;62.45;;;6.40;99.90;;;;;;5139043;27;20448;-63
2022/12/03 09:30:43;;;;;;;175.25;64.75;;;6.50;99.90;;;;;;5139103;27;20540;-63
2022/12/03 09:33:09;;;;;;;155.18;64.60;;;6.40;99.90;;;;;;5139040;27;20067;-63
2022/12/03 09:35:35;;;;;;;169.43;61.35;;;6.40;99.90;;;;;;5138952;27;20031;-63
2022/12/03 09:38:01;;;;;;;176.15;64.00;;;6.50;99.90;;;;;;5139027;27;20027;-63
2022/12/03 09:40:27;;;;;;;142.80;61.97;;;6.50;99.90;;;;;;5138788;27;20046;-63
2022/12/03 09:42:57;;;;;;;165.75;68.95;;;6.40;99.90;;;;;;5138707;27;20219;-63
2022/12/03 09:45:23;;;;;;;161.45;64.55;;;6.30;99.90;;;;;;5138790;27;20041;-63
2022/12/03 09:47:49;;;;;;;163.60;66.90;;;6.40;99.90;;;;;;5138839;27;20023;-63
2022/12/03 09:50:21;;;;;;;149.35;64.80;;;6.40;99.90;;;;;;5138714;27;20126;-63
2022/12/03 09:52:49;;;;;;;154.52;63.55;;;6.60;99.90;;;;;;5138779;27;20033;-63
2022/12/03 09:55:20;;;;;;;151.40;64.00;;;6.70;99.90;;;;;;5138530;27;20027;-63
2022/12/03 09:57:46;;;;;;;150.65;61.35;;;6.50;99.90;;;;;;5138547;27;20023;-63
2022/12/03 10:00:17;;;;;;;145.55;62.50;;;6.50;99.90;;;;;;5138397;27;20421;-63
2022/12/03 10:02:45;;;;;;;159.70;65.20;;;6.60;99.90;;;;;;5138265;27;20027;-63
2022/12/03 10:05:12;;;;;;;167.68;64.38;;;6.60;99.90;;;;;;5138269;27;20015;-63
2022/12/03 10:07:38;;;;;;;152.88;64.65;;;6.60;99.90;;;;;;5138124;27;20521;-63
2022/12/03 10:10:13;;;;;;;154.23;65.05;;;6.80;99.90;;;;;;5138210;27;20026;-63
2022/12/03 10:12:39;;;;;;;140.60;61.50;;;7.00;99.90;;;;;;5138063;27;20136;-64
2022/12/03 10:15:05;;;;;;;170.60;70.35;;;6.90;99.90;;;;;;5137973;27;20015;-63
2022/12/03 10:17:31;;;;;;;165.32;69.75;;;6.90;99.90;;;;;;5138050;27;20079;-63
2022/12/03 10:19:57;;;;;;;177.30;70.50;;;7.00;99.90;;;;;;5138065;27;20027;-64
2022/12/03 10:22:23;;;;;;;153.13;67.88;;;7.10;99.90;;;;;;5136724;27;20030;-63
2022/12/03 10:25:09;;;;;;;139.77;63.83;;;6.90;99.90;;;;;;5137808;27;20019;-63
2022/12/03 10:27:34;;;;;;;158.38;65.65;;;6.90;99.90;;;;;;5137945;27;20023;-63
2022/12/03 10:30:03;;;;;;;163.48;69.68;;;7.00;99.90;;;;;;5137944;27;20015;-63
2022/12/03 10:32:42;;;;;;;164.40;69.75;;;7.10;99.90;;;;;;5137803;27;20026;-63
2022/12/03 10:35:12;;;;;;;145.73;64.63;;;7.00;99.90;;;;;;5137645;27;20034;-63
2022/12/03 10:38:16;;;;;;;161.80;68.55;;;7.00;99.90;;;;;;5137652;27;20027;-63
2022/12/03 10:40:42;;;;;;;151.98;65.30;;;7.10;99.90;;;;;;5085233;27;20104;-63
2022/12/03 10:43:18;;;;;;;164.27;71.35;;;7.30;99.90;;;;;;5137610;27;20333;-63
2022/12/03 10:45:46;;;;;;;161.95;69.68;;;7.50;99.90;;;;;;5137617;27;20023;-63
2022/12/03 10:48:29;;;;;;;155.93;65.65;;;7.40;99.90;;;;;;5137517;27;20117;-63
2022/12/03 10:51:01;;;;;;;155.95;69.07;;;7.40;99.90;;;;;;5137531;27;20134;-63
2022/12/03 10:53:29;;;;;;;168.65;71.10;;;7.30;99.90;;;;;;5137231;27;20046;-63
2022/12/03 10:55:58;;;;;;;169.55;72.10;;;7.30;99.90;;;;;;5137420;27;20023;-63
2022/12/03 10:58:29;;;;;;;166.85;70.43;;;7.40;99.90;;;;;;5137467;27;20023;-63
2022/12/03 11:00:57;;;;;;;150.05;69.47;;;7.30;99.90;;;;;;5137138;27;20048;-64
2022/12/03 11:03:28;;;;;;;162.05;70.25;;;7.50;99.90;;;;;;5137244;27;20055;-63
2022/12/03 11:05:56;;;;;;;166.80;70.82;;;7.50;99.90;;;;;;5137048;27;20027;-63
2022/12/03 11:08:25;;;;;;;168.32;69.95;;;7.50;99.90;;;;;;5137071;27;20110;-64
2022/12/03 11:11:03;;;;;;;167.32;70.65;;;7.60;99.90;;;;;;5137087;27;20083;-63
2022/12/03 11:13:32;;;;;;;175.80;73.03;;;7.70;99.90;;;;;;5137298;27;20114;-64
2022/12/03 11:16:04;;;;;;;158.23;69.05;;;7.80;99.90;;;;;;5136782;27;20505;-63
2022/12/03 11:18:36;;;;;;;154.75;69.28;;;7.80;99.90;;;;;;5136793;27;20372;-64
2022/12/03 11:21:13;;;;;;;175.82;71.47;;;7.90;99.90;;;;;;5118468;27;20459;-63
2022/12/03 11:23:45;;;;;;;138.20;61.15;;;7.90;99.90;;;;;;5118471;27;20027;-63
2022/12/03 11:26:11;;;;;;;125.13;58.08;;;8.00;99.90;;;;;;5136700;27;20031;-63
2022/12/03 11:28:51;;;;;;;126.38;58.33;;;8.00;99.90;;;;;;5136728;27;20023;-63
2022/12/03 11:31:45;;;;;;;176.13;64.45;;;7.70;99.90;;;;;;5136720;27;20458;-64
2022/12/03 11:34:18;;;;;;;128.65;57.50;;;7.80;99.90;;;;;;5136259;27;20023;-64
2022/12/03 11:37:08;;;;;;;139.10;59.28;;;8.00;99.90;;;;;;5136613;27;20155;-63
2022/12/03 11:39:44;;;;;;;133.60;57.15;;;8.20;99.90;;;;;;5136553;27;20032;-63
2022/12/03 11:42:24;;;;;;;129.43;55.45;;;8.60;99.90;;;;;;5136480;27;20016;-63
2022/12/03 11:45:03;;;;;;;151.77;59.13;;;8.80;99.90;;;;;;5136387;27;20089;-63
2022/12/03 11:47:37;;;;;;;153.15;59.67;;;9.20;99.90;;;;;;5136383;27;20107;-63
2022/12/03 11:50:34;;;;;;;143.95;65.03;;;9.30;99.90;;;;;;5136377;27;20055;-64
2022/12/03 11:53:06;;;;;;;132.90;59.95;;;9.80;99.90;;;;;;5115462;27;20028;-64
2022/12/03 11:55:36;;;;;;;142.30;67.15;;;10.00;99.90;;;;;;5136372;27;20019;-63
2022/12/03 11:58:20;;;;;;;154.80;69.25;;;10.10;99.90;;;;;;5136102;27;20061;-64
2022/12/03 12:00:52;;;;;;;140.85;66.55;;;10.20;99.90;;;;;;5117791;27;20512;-64
2022/12/03 12:03:26;;;;;;;149.38;66.25;;;10.20;99.90;;;;;;5136216;27;20047;-64
2022/12/03 12:06:02;;;;;;;135.20;64.00;;;10.10;99.90;;;;;;5135923;27;20022;-64
2022/12/03 12:08:29;;;;;;;139.38;62.20;;;10.40;99.90;;;;;;5135981;27;20127;-64
2022/12/03 12:10:55;;;;;;;136.38;61.28;;;10.60;99.90;;;;;;5135932;27;20062;-64
2022/12/03 12:13:30;;;;;;;145.13;65.00;;;10.70;99.90;;;;;;5135978;27;20059;-64
2022/12/03 12:16:04;;;;;;;133.05;57.92;;;10.70;99.90;;;;;;5117208;27;20078;-64
2022/12/03 12:18:47;;;;;;;139.82;62.22;;;10.90;99.90;;;;;;5135825;27;20079;-64
2022/12/03 12:21:42;;;;;;;130.63;58.38;;;11.00;99.90;;;;;;5135780;27;20028;-64
2022/12/03 12:24:31;;;;;;;138.65;64.80;;;11.30;99.90;;;;;;5135863;27;20111;-64
2022/12/03 12:27:19;;;;;;;154.27;68.25;;;11.40;99.90;;;;;;5135571;27;20058;-64
2022/12/03 12:29:59;;;;;;;154.80;71.00;;;11.50;99.90;;;;;;5117517;28;20461;-64
2022/12/03 12:32:30;;;;;;;150.48;68.57;;;11.70;99.90;;;;;;5135596;27;20567;-64
2022/12/03 12:35:15;;;;;;;153.02;69.57;;;12.00;99.90;;;;;;5135699;27;20444;-64
2022/12/03 12:38:12;;;;;;;156.90;71.78;;;11.70;98.50;;;;;;5135456;27;20361;-65
2022/12/03 12:40:40;;;;;;;167.30;74.22;;;11.60;99.40;;;;;;5135543;27;20050;-64
2022/12/03 12:43:26;;;;;;;149.90;70.57;;;11.60;98.20;;;;;;5135582;28;20432;-64
2022/12/03 12:45:54;;;;;;;152.13;69.10;;;11.70;99.50;;;;;;5134596;27;20023;-64
2022/12/03 12:48:29;;;;;;;162.55;75.68;;;11.90;99.40;;;;;;5135510;28;20315;-64
2022/12/03 12:51:13;;;;;;;151.15;71.68;;;11.90;97.30;;;;;;5135457;28;20027;-64
2022/12/03 12:53:43;;;;;;;166.32;74.10;;;11.80;97.20;;;;;;5135395;28;20404;-64
2022/12/03 12:56:18;;;;;;;145.05;69.32;;;11.80;98.70;;;;;;5135105;28;20099;-64